Time;durP1;ratioP1;P1;durP2;ratioP2;P2;SDS_P1;SDS_P2;PMS_P1;PMS_P2;Temp;Humidity;BMP_temperature;BMP_pressure;BME280_temperature;BME280_humidity;BME280_pressure;Samples;Min_cycle;Max_cycle;Signal;HPM_P1;HPM_P2
2021/08/05 00:01:17;;;;;;;6.67;3.30;;;17.50;99.90;;;;;;4993667;28;20394;-62
2021/08/05 00:03:43;;;;;;;7.03;3.40;;;17.40;99.90;;;;;;4992473;28;20379;-63
2021/08/05 00:06:09;;;;;;;6.10;3.40;;;17.40;99.90;;;;;;4993663;28;20827;-63
2021/08/05 00:08:34;;;;;;;7.00;3.90;;;17.40;99.90;;;;;;4992380;28;20465;-63
2021/08/05 00:11:01;;;;;;;6.55;3.60;;;17.40;99.90;;;;;;4975872;28;20421;-63
2021/08/05 00:13:28;;;;;;;7.10;3.80;;;17.40;99.90;;;;;;4992575;28;21107;-61
2021/08/05 00:15:54;;;;;;;6.80;3.97;;;17.40;99.90;;;;;;4993427;28;20390;-61
2021/08/05 00:18:20;;;;;;;6.88;3.30;;;18.00;99.90;;;;;;4992841;28;20490;-59
2021/08/05 00:20:46;;;;;;;7.60;3.97;;;17.30;99.90;;;;;;4992813;28;20383;-61
2021/08/05 00:23:11;;;;;;;6.70;4.00;;;17.30;99.90;;;;;;4993308;28;20402;-61
2021/08/05 00:25:37;;;;;;;6.38;3.67;;;17.30;99.90;;;;;;4992390;28;20439;-61
2021/08/05 00:28:03;;;;;;;10.52;4.20;;;17.20;99.90;;;;;;4992952;28;20928;-61
2021/08/05 00:30:29;;;;;;;7.28;4.00;;;17.20;99.90;;;;;;4992196;28;20410;-61
2021/08/05 00:32:55;;;;;;;8.70;4.00;;;17.20;99.90;;;;;;4992937;28;20445;-61
2021/08/05 00:35:21;;;;;;;6.78;3.50;;;17.20;99.90;;;;;;4992871;28;20862;-59
2021/08/05 00:37:46;;;;;;;8.10;4.40;;;17.20;99.90;;;;;;4992882;28;20471;-61
2021/08/05 00:40:12;;;;;;;8.57;4.07;;;17.10;99.90;;;;;;4992516;28;20403;-61
2021/08/05 00:42:38;;;;;;;7.78;4.13;;;17.00;99.90;;;;;;4991813;28;20897;-61
2021/08/05 00:45:04;;;;;;;7.23;3.80;;;17.00;99.90;;;;;;4992659;28;20456;-61
2021/08/05 00:47:30;;;;;;;6.43;3.60;;;17.00;99.90;;;;;;4991601;28;20428;-61
2021/08/05 00:49:56;;;;;;;6.68;3.80;;;17.10;99.90;;;;;;4992262;28;20509;-61
2021/08/05 00:52:23;;;;;;;9.73;3.70;;;17.10;99.90;;;;;;4992296;28;20799;-59
2021/08/05 00:54:49;;;;;;;6.15;3.80;;;17.10;99.90;;;;;;4992409;28;20378;-61
2021/08/05 00:57:14;;;;;;;6.55;3.72;;;17.20;99.90;;;;;;4992360;28;20433;-61
2021/08/05 00:59:40;;;;;;;8.85;4.07;;;17.20;99.90;;;;;;4991745;28;21004;-61
2021/08/05 01:02:16;;;;;;;8.60;4.20;;;17.30;99.90;;;;;;4992298;28;20792;-62
2021/08/05 01:04:44;;;;;;;7.57;4.72;;;17.40;99.90;;;;;;4991587;28;20387;-62
2021/08/05 01:07:21;;;;;;;8.00;3.70;;;17.40;99.90;;;;;;4992314;28;20393;-62
2021/08/05 01:10:16;;;;;;;7.43;4.10;;;17.40;99.90;;;;;;4991044;28;20540;-61
2021/08/05 01:13:07;;;;;;;8.75;4.60;;;17.40;99.90;;;;;;4991226;28;20682;-62
2021/08/05 01:15:34;;;;;;;6.60;3.85;;;17.40;99.90;;;;;;4991287;28;20858;-61
2021/08/05 01:18:07;;;;;;;6.80;3.57;;;17.40;99.90;;;;;;4992550;28;20403;-61
2021/08/05 01:20:34;;;;;;;7.50;4.30;;;17.40;99.90;;;;;;4991113;28;20403;-62
2021/08/05 01:23:11;;;;;;;7.55;3.70;;;17.40;99.90;;;;;;4992137;28;20791;-62
2021/08/05 01:25:42;;;;;;;6.53;3.75;;;17.40;99.90;;;;;;4991070;28;20400;-62
2021/08/05 01:28:11;;;;;;;8.45;4.00;;;17.30;99.90;;;;;;4974329;28;20399;-62
2021/08/05 01:30:37;;;;;;;7.90;4.70;;;17.30;99.90;;;;;;4990955;28;20406;-62
2021/08/05 01:33:03;;;;;;;6.73;4.30;;;17.20;99.90;;;;;;4974151;28;20424;-62
2021/08/05 01:35:30;;;;;;;7.63;4.13;;;17.30;99.90;;;;;;4973527;28;20389;-62
2021/08/05 01:37:56;;;;;;;8.02;4.25;;;17.30;99.90;;;;;;4991615;28;20444;-62
2021/08/05 01:40:23;;;;;;;8.20;4.20;;;17.30;99.90;;;;;;4991350;28;20387;-62
2021/08/05 01:42:48;;;;;;;8.45;3.97;;;17.30;99.90;;;;;;4991254;28;20392;-61
2021/08/05 01:45:16;;;;;;;7.20;3.97;;;17.30;99.90;;;;;;4974033;28;20473;-62
2021/08/05 01:47:43;;;;;;;7.15;3.70;;;17.40;99.90;;;;;;4990237;28;20417;-62
2021/08/05 01:50:12;;;;;;;8.30;4.20;;;17.40;99.90;;;;;;4991256;28;20410;-62
2021/08/05 01:52:41;;;;;;;6.60;3.83;;;17.40;99.90;;;;;;4990825;28;20391;-61
2021/08/05 01:55:08;;;;;;;7.10;3.95;;;17.40;99.90;;;;;;4958246;28;20397;-62
2021/08/05 01:57:34;;;;;;;6.63;3.92;;;17.50;99.90;;;;;;4990887;28;20862;-61
2021/08/05 01:59:59;;;;;;;8.55;4.13;;;17.40;99.90;;;;;;4990970;28;20405;-65
2021/08/05 02:02:27;;;;;;;7.72;3.50;;;17.40;99.90;;;;;;4990928;28;20457;-61
2021/08/05 02:04:56;;;;;;;10.40;3.80;;;17.30;99.90;;;;;;4991276;28;20500;-60
2021/08/05 02:07:26;;;;;;;8.05;4.35;;;17.30;99.90;;;;;;4988401;28;20487;-61
2021/08/05 02:10:22;;;;;;;7.68;4.05;;;17.20;99.90;;;;;;4984895;28;20445;-62
2021/08/05 02:13:00;;;;;;;7.38;3.70;;;17.30;99.90;;;;;;4977489;28;20384;-61
2021/08/05 02:15:28;;;;;;;10.95;4.45;;;17.20;99.90;;;;;;4971295;28;20432;-59
2021/08/05 02:17:55;;;;;;;6.82;4.00;;;17.20;99.90;;;;;;4971349;28;20562;-61
2021/08/05 02:20:22;;;;;;;7.43;4.45;;;17.10;99.90;;;;;;4971784;28;20411;-62
2021/08/05 02:22:48;;;;;;;7.40;3.80;;;17.10;99.90;;;;;;4969846;28;20499;-61
2021/08/05 02:25:14;;;;;;;8.15;4.53;;;16.90;99.90;;;;;;4971294;28;20618;-61
2021/08/05 02:27:41;;;;;;;7.72;4.40;;;16.90;99.90;;;;;;4970711;28;20392;-61
2021/08/05 02:30:08;;;;;;;10.18;4.80;;;16.90;99.90;;;;;;4971227;28;20894;-62
2021/08/05 02:32:36;;;;;;;10.55;4.82;;;16.80;99.90;;;;;;4970348;28;20864;-61
2021/08/05 02:35:05;;;;;;;7.10;4.00;;;16.80;99.90;;;;;;4953802;28;20389;-61
2021/08/05 02:37:31;;;;;;;8.70;4.50;;;16.60;99.90;;;;;;4953390;28;20871;-59
2021/08/05 02:39:57;;;;;;;7.22;3.90;;;16.50;99.90;;;;;;4971537;28;20419;-62
2021/08/05 02:42:23;;;;;;;9.98;4.82;;;16.30;99.90;;;;;;4971189;28;20448;-62
2021/08/05 02:44:52;;;;;;;8.15;4.63;;;16.10;99.90;;;;;;4970693;28;20372;-62
2021/08/05 02:47:18;;;;;;;7.55;4.50;;;16.10;99.90;;;;;;4950306;29;20430;-62
2021/08/05 02:49:46;;;;;;;7.90;3.75;;;16.00;99.90;;;;;;4951136;28;20452;-61
2021/08/05 02:52:13;;;;;;;10.40;4.57;;;16.00;99.90;;;;;;4952132;28;20414;-61
2021/08/05 02:54:39;;;;;;;9.95;4.80;;;15.90;99.90;;;;;;4951185;28;20493;-61
2021/08/05 02:57:05;;;;;;;7.47;4.30;;;16.00;99.90;;;;;;4952268;28;20452;-61
2021/08/05 02:59:31;;;;;;;7.80;4.47;;;16.00;99.90;;;;;;4951407;28;20398;-59
2021/08/05 03:01:58;;;;;;;7.85;4.60;;;15.90;99.90;;;;;;4952188;28;20881;-61
2021/08/05 03:04:29;;;;;;;8.05;4.45;;;15.90;99.90;;;;;;4951706;28;20394;-61
2021/08/05 03:06:55;;;;;;;9.32;4.65;;;15.90;99.90;;;;;;4951540;28;20782;-61
2021/08/05 03:09:20;;;;;;;9.38;4.35;;;15.80;99.90;;;;;;4960443;28;20490;-61
2021/08/05 03:11:46;;;;;;;8.80;4.30;;;15.70;99.90;;;;;;4961332;28;20895;-60
2021/08/05 03:14:11;;;;;;;7.83;4.40;;;15.80;99.90;;;;;;4951708;29;20397;-61
2021/08/05 03:16:37;;;;;;;8.53;4.37;;;15.70;99.90;;;;;;4950741;29;20707;-61
2021/08/05 03:19:03;;;;;;;8.85;4.30;;;15.60;99.90;;;;;;4951900;29;20425;-61
2021/08/05 03:21:28;;;;;;;7.83;3.87;;;15.60;99.90;;;;;;4951460;29;20398;-61
2021/08/05 03:23:54;;;;;;;9.17;4.23;;;15.60;99.90;;;;;;4951123;29;20390;-60
2021/08/05 03:26:20;;;;;;;8.65;4.20;;;15.60;99.90;;;;;;4951843;29;20400;-60
2021/08/05 03:28:45;;;;;;;8.45;4.28;;;15.60;99.90;;;;;;4950847;29;20389;-60
2021/08/05 03:31:11;;;;;;;8.30;4.20;;;15.70;99.90;;;;;;4956494;28;20737;-60
2021/08/05 03:33:36;;;;;;;8.27;4.20;;;15.60;99.90;;;;;;4962265;28;20398;-60
2021/08/05 03:36:03;;;;;;;10.05;4.72;;;15.60;99.90;;;;;;4971895;28;20384;-60
2021/08/05 03:38:29;;;;;;;8.15;4.28;;;15.60;99.90;;;;;;4974656;28;20514;-61
2021/08/05 03:40:54;;;;;;;9.43;4.87;;;15.60;99.90;;;;;;4973856;28;20399;-60
2021/08/05 03:43:20;;;;;;;9.15;4.63;;;15.70;99.90;;;;;;4974415;28;20424;-60
2021/08/05 03:45:46;;;;;;;7.60;4.70;;;15.60;99.90;;;;;;4973827;28;20388;-60
2021/08/05 03:48:12;;;;;;;8.32;4.70;;;15.60;99.90;;;;;;4993295;28;20428;-61
2021/08/05 03:50:37;;;;;;;7.80;3.90;;;15.60;99.90;;;;;;4993247;28;20511;-60
2021/08/05 03:53:03;;;;;;;8.90;4.72;;;15.60;99.90;;;;;;4990259;28;20408;-59
2021/08/05 03:55:29;;;;;;;9.38;4.95;;;15.60;99.90;;;;;;4993827;28;20862;-60
2021/08/05 03:57:54;;;;;;;8.20;4.70;;;15.60;99.90;;;;;;4993370;28;20402;-60
2021/08/05 04:00:21;;;;;;;8.85;4.35;;;15.60;99.90;;;;;;4989911;28;20406;-60
2021/08/05 04:02:46;;;;;;;8.73;4.53;;;15.70;99.90;;;;;;4986861;28;20406;-60
2021/08/05 04:05:12;;;;;;;8.18;4.38;;;15.60;99.90;;;;;;4992854;28;20402;-60
2021/08/05 04:07:38;;;;;;;8.60;4.53;;;15.50;99.90;;;;;;4991767;28;20398;-60
2021/08/05 04:10:05;;;;;;;8.70;4.57;;;15.50;99.90;;;;;;4992751;28;20472;-60
2021/08/05 04:12:30;;;;;;;11.02;4.55;;;15.60;99.90;;;;;;4974213;28;20489;-60
2021/08/05 04:14:56;;;;;;;8.90;4.60;;;15.60;99.90;;;;;;4991798;28;20592;-60
2021/08/05 04:17:21;;;;;;;8.43;4.60;;;15.70;99.90;;;;;;4983487;28;20402;-60
2021/08/05 04:19:47;;;;;;;8.70;4.70;;;15.70;99.90;;;;;;4985961;28;20418;-60
2021/08/05 04:22:13;;;;;;;7.53;4.40;;;15.70;99.90;;;;;;4986770;28;20406;-60
2021/08/05 04:24:39;;;;;;;8.05;4.45;;;15.70;99.90;;;;;;4991394;28;20423;-59
2021/08/05 04:27:05;;;;;;;8.65;4.78;;;15.70;99.90;;;;;;4992414;28;20450;-60
2021/08/05 04:29:31;;;;;;;9.43;4.77;;;15.70;99.90;;;;;;4992163;28;20403;-59
2021/08/05 04:31:57;;;;;;;7.70;4.50;;;15.80;99.90;;;;;;4984808;28;22113;-60
2021/08/05 04:34:23;;;;;;;9.05;4.50;;;15.90;99.90;;;;;;4987926;28;20466;-60
2021/08/05 04:36:48;;;;;;;8.60;4.80;;;16.00;99.90;;;;;;4985567;28;20549;-60
2021/08/05 04:39:14;;;;;;;10.37;4.90;;;16.10;99.90;;;;;;4989717;28;20410;-61
2021/08/05 04:41:40;;;;;;;8.32;4.22;;;16.20;99.90;;;;;;4987989;28;20493;-60
2021/08/05 04:44:05;;;;;;;7.70;4.20;;;16.50;99.90;;;;;;4989827;28;20407;-60
2021/08/05 04:46:31;;;;;;;8.23;4.37;;;16.70;99.90;;;;;;4990353;28;20490;-60
2021/08/05 04:48:57;;;;;;;6.70;3.90;;;16.90;99.90;;;;;;4990392;28;20387;-60
2021/08/05 04:51:22;;;;;;;9.70;4.63;;;17.00;99.90;;;;;;4991045;28;20773;-60
2021/08/05 04:53:48;;;;;;;8.70;4.83;;;17.00;99.90;;;;;;4990834;28;20757;-63
2021/08/05 04:56:14;;;;;;;9.02;5.07;;;17.20;99.90;;;;;;4990331;28;20402;-61
2021/08/05 04:58:39;;;;;;;7.72;4.60;;;17.50;99.90;;;;;;4990811;28;20869;-61
2021/08/05 05:01:05;;;;;;;7.80;4.50;;;17.80;99.90;;;;;;4990958;28;20394;-61
2021/08/05 05:03:31;;;;;;;8.07;3.80;;;18.10;99.90;;;;;;4990774;28;20390;-60
2021/08/05 05:05:57;;;;;;;9.43;3.95;;;18.10;99.90;;;;;;4990189;28;20414;-61
2021/08/05 05:08:24;;;;;;;8.97;4.10;;;18.00;99.90;;;;;;4992373;28;20421;-61
2021/08/05 05:10:52;;;;;;;12.50;4.40;;;18.00;99.90;;;;;;4990991;28;20414;-61
2021/08/05 05:13:19;;;;;;;12.50;4.13;;;18.20;99.90;;;;;;4986677;28;20414;-61
2021/08/05 05:15:45;;;;;;;8.90;4.63;;;18.20;99.90;;;;;;4982377;28;20390;-61
2021/08/05 05:18:12;;;;;;;8.20;4.10;;;18.30;99.90;;;;;;4977568;28;20496;-62
2021/08/05 05:20:39;;;;;;;9.50;4.32;;;18.10;99.90;;;;;;4987749;28;20399;-59
2021/08/05 05:23:05;;;;;;;7.30;3.60;;;18.00;99.90;;;;;;4974434;28;20430;-61
2021/08/05 05:25:31;;;;;;;7.83;4.23;;;18.00;99.90;;;;;;4991840;28;20748;-61
2021/08/05 05:27:57;;;;;;;9.93;4.53;;;18.00;99.90;;;;;;4991238;28;20375;-62
2021/08/05 05:30:23;;;;;;;8.60;4.30;;;18.00;99.90;;;;;;4986001;28;20887;-62
2021/08/05 05:32:49;;;;;;;10.13;4.70;;;18.00;99.90;;;;;;4970379;28;20891;-62
2021/08/05 05:35:19;;;;;;;7.43;4.17;;;18.00;99.90;;;;;;4987066;28;20870;-62
2021/08/05 05:37:47;;;;;;;8.95;4.95;;;17.80;99.90;;;;;;4979657;28;20487;-62
2021/08/05 05:40:14;;;;;;;9.20;4.55;;;17.70;99.90;;;;;;4991258;28;20386;-62
2021/08/05 05:42:40;;;;;;;8.18;4.50;;;17.70;99.90;;;;;;4990974;28;20390;-60
2021/08/05 05:45:07;;;;;;;8.30;4.00;;;17.90;99.90;;;;;;4991261;28;20394;-62
2021/08/05 05:47:32;;;;;;;9.90;4.67;;;18.40;99.90;;;;;;4970393;28;20823;-62
2021/08/05 05:49:58;;;;;;;8.00;4.20;;;18.50;99.90;;;;;;4960289;28;20412;-60
2021/08/05 05:52:24;;;;;;;8.98;4.70;;;18.50;99.90;;;;;;4966775;28;20459;-62
2021/08/05 05:54:49;;;;;;;8.77;4.90;;;18.60;99.90;;;;;;4964783;28;20407;-62
2021/08/05 05:57:15;;;;;;;9.30;4.77;;;18.60;99.90;;;;;;4965897;28;20406;-62
2021/08/05 05:59:41;;;;;;;9.00;4.57;;;18.80;99.90;;;;;;4962733;28;20400;-60
2021/08/05 06:02:07;;;;;;;9.20;4.80;;;19.00;99.90;;;;;;4970900;28;20396;-62
2021/08/05 06:04:33;;;;;;;11.88;4.30;;;19.60;99.90;;;;;;4951978;28;20473;-61
2021/08/05 06:06:58;;;;;;;9.95;4.40;;;21.10;99.90;;;;;;4951404;29;21244;-63
2021/08/05 06:09:24;;;;;;;7.50;3.33;;;23.10;99.90;;;;;;4968954;28;20840;-63
2021/08/05 06:11:50;;;;;;;9.23;3.63;;;24.60;99.90;;;;;;4960848;28;20773;-61
2021/08/05 06:14:16;;;;;;;9.40;3.80;;;25.80;99.90;;;;;;4952622;28;20791;-62
2021/08/05 06:16:42;;;;;;;8.65;3.80;;;26.70;99.90;;;;;;4951291;28;20759;-59
2021/08/05 06:19:08;;;;;;;7.55;3.22;;;27.40;99.90;;;;;;4951571;29;20398;-62
2021/08/05 06:21:33;;;;;;;6.82;3.00;;;27.20;99.90;;;;;;4951583;28;20796;-62
2021/08/05 06:23:59;;;;;;;7.90;4.70;;;27.30;99.90;;;;;;4951036;29;21149;-62
2021/08/05 06:26:26;;;;;;;7.60;4.03;;;28.10;99.90;;;;;;4969136;28;20768;-62
2021/08/05 06:28:52;;;;;;;6.47;3.50;;;28.80;97.10;;;;;;4969264;28;20742;-62
2021/08/05 06:31:18;;;;;;;6.40;3.10;;;28.40;97.50;;;;;;4956456;28;20428;-62
2021/08/05 06:33:47;;;;;;;7.20;2.80;;;28.10;97.30;;;;;;4950811;28;20426;-59
2021/08/05 06:36:13;;;;;;;7.40;3.00;;;27.80;97.60;;;;;;4951341;28;20390;-61
2021/08/05 06:38:39;;;;;;;8.02;2.85;;;26.70;99.00;;;;;;4951851;28;20411;-63
2021/08/05 06:41:05;;;;;;;7.18;3.00;;;25.70;99.90;;;;;;4954765;28;20419;-63
2021/08/05 06:43:31;;;;;;;7.25;3.17;;;25.80;99.90;;;;;;4961418;28;20420;-61
2021/08/05 06:45:56;;;;;;;7.95;2.97;;;27.30;99.60;;;;;;4963309;28;20923;-61
2021/08/05 06:48:22;;;;;;;7.60;2.70;;;28.00;97.90;;;;;;4981135;28;20412;-63
2021/08/05 06:50:48;;;;;;;7.10;2.80;;;28.40;96.90;;;;;;4978035;28;20427;-61
2021/08/05 06:53:13;;;;;;;7.50;3.33;;;29.10;95.40;;;;;;4982997;28;20392;-60
2021/08/05 06:55:39;;;;;;;6.70;2.90;;;28.90;94.30;;;;;;4971065;28;20439;-63
2021/08/05 06:58:05;;;;;;;6.50;3.35;;;29.60;94.10;;;;;;4967542;28;20408;-65
2021/08/05 07:00:30;;;;;;;7.90;3.10;;;30.70;91.10;;;;;;4973547;28;20408;-61
2021/08/05 07:02:56;;;;;;;8.13;3.00;;;30.00;91.80;;;;;;4980843;28;20403;-61
2021/08/05 07:05:22;;;;;;;8.97;4.80;;;28.60;93.40;;;;;;4986118;28;20389;-59
2021/08/05 07:07:47;;;;;;;7.50;4.80;;;28.20;94.70;;;;;;4977569;28;20880;-60
2021/08/05 07:10:13;;;;;;;9.57;3.67;;;28.20;93.70;;;;;;4970336;28;20443;-60
2021/08/05 07:12:40;;;;;;;7.22;3.45;;;26.60;96.00;;;;;;4970814;28;20400;-62
2021/08/05 07:15:06;;;;;;;8.23;3.10;;;25.50;99.30;;;;;;4970319;28;20924;-62
2021/08/05 07:17:32;;;;;;;7.28;3.90;;;25.10;99.90;;;;;;4970400;28;20830;-63
2021/08/05 07:19:58;;;;;;;7.50;3.23;;;25.10;99.90;;;;;;4979205;28;20395;-62
2021/08/05 07:22:23;;;;;;;7.20;4.40;;;25.10;99.90;;;;;;4974694;28;20475;-62
2021/08/05 07:24:49;;;;;;;7.80;3.23;;;25.10;99.90;;;;;;4978306;28;20881;-62
2021/08/05 07:27:15;;;;;;;8.37;2.90;;;24.80;99.90;;;;;;4989398;28;20486;-62
2021/08/05 07:29:40;;;;;;;10.03;3.90;;;24.80;99.90;;;;;;4989190;28;20387;-62
2021/08/05 07:32:07;;;;;;;8.05;3.42;;;24.60;99.90;;;;;;4988408;28;20996;-62
2021/08/05 07:34:35;;;;;;;7.70;3.72;;;24.50;99.90;;;;;;4975862;28;20396;-61
2021/08/05 07:37:01;;;;;;;7.63;4.00;;;24.40;99.90;;;;;;4970614;28;20404;-63
2021/08/05 07:39:27;;;;;;;8.48;3.90;;;24.30;99.90;;;;;;4989631;28;20386;-62
2021/08/05 07:41:53;;;;;;;7.95;3.97;;;23.70;99.90;;;;;;4970466;28;20860;-61
2021/08/05 07:44:19;;;;;;;9.80;3.60;;;23.00;99.90;;;;;;4970431;28;20393;-63
2021/08/05 07:46:44;;;;;;;8.97;3.77;;;22.80;99.90;;;;;;4969879;28;20416;-61
2021/08/05 07:49:11;;;;;;;9.63;3.70;;;23.10;99.90;;;;;;4970053;28;20388;-62
2021/08/05 07:51:37;;;;;;;9.10;4.50;;;23.00;99.90;;;;;;4963231;28;20407;-61
2021/08/05 07:54:03;;;;;;;9.02;3.30;;;23.30;99.90;;;;;;4975796;28;20860;-63
2021/08/05 07:56:29;;;;;;;8.30;3.85;;;23.30;99.90;;;;;;4982046;28;20470;-62
2021/08/05 07:58:55;;;;;;;7.20;3.60;;;23.30;99.90;;;;;;4983421;28;20404;-61
2021/08/05 08:01:20;;;;;;;7.80;3.42;;;23.40;99.90;;;;;;4982224;28;20402;-62
2021/08/05 08:03:46;;;;;;;9.50;3.53;;;23.70;99.90;;;;;;4988625;28;20387;-60
2021/08/05 08:06:12;;;;;;;6.70;3.30;;;23.30;99.90;;;;;;4978458;28;20392;-62
2021/08/05 08:08:37;;;;;;;7.30;3.30;;;23.20;99.90;;;;;;4970318;28;20388;-62
2021/08/05 08:11:03;;;;;;;6.25;3.20;;;23.30;99.90;;;;;;4970838;28;20867;-62
2021/08/05 08:13:29;;;;;;;7.68;3.67;;;23.50;99.90;;;;;;4974548;28;20756;-63
2021/08/05 08:15:55;;;;;;;7.85;3.70;;;23.10;99.90;;;;;;4967521;28;20408;-63
2021/08/05 08:18:21;;;;;;;6.88;3.50;;;23.10;99.90;;;;;;4977322;28;20417;-65
2021/08/05 08:20:47;;;;;;;7.10;3.33;;;23.30;99.90;;;;;;4979269;28;20917;-62
2021/08/05 08:23:13;;;;;;;7.50;3.83;;;23.40;99.90;;;;;;4973040;28;20407;-64
2021/08/05 08:25:39;;;;;;;8.55;3.50;;;23.20;99.90;;;;;;4973442;28;20483;-65
2021/08/05 08:28:06;;;;;;;8.27;4.70;;;22.90;99.90;;;;;;4973078;28;20475;-63
2021/08/05 08:30:32;;;;;;;7.90;3.90;;;22.80;99.90;;;;;;4973374;28;20844;-63
2021/08/05 08:32:58;;;;;;;7.88;4.20;;;23.00;99.90;;;;;;4972886;28;20408;-65
2021/08/05 08:35:24;;;;;;;8.02;4.20;;;23.40;99.90;;;;;;4973162;28;20392;-65
2021/08/05 08:37:50;;;;;;;9.00;5.00;;;23.30;99.90;;;;;;4973380;28;20416;-61
2021/08/05 08:40:17;;;;;;;8.83;4.60;;;23.30;99.90;;;;;;4973535;28;20784;-65
2021/08/05 08:42:43;;;;;;;6.22;3.70;;;23.40;99.90;;;;;;4962491;28;20400;-64
2021/08/05 08:45:11;;;;;;;9.60;3.67;;;23.70;99.90;;;;;;4972678;28;20480;-65
2021/08/05 08:47:40;;;;;;;7.60;2.83;;;24.00;99.90;;;;;;4973625;28;20504;-64
2021/08/05 08:50:06;;;;;;;7.90;3.42;;;24.70;99.90;;;;;;4972263;28;20450;-64
2021/08/05 08:52:33;;;;;;;8.32;3.70;;;24.70;99.90;;;;;;4982443;28;20452;-65
2021/08/05 08:55:02;;;;;;;7.00;3.70;;;24.00;99.90;;;;;;4979208;28;21156;-65
2021/08/05 08:57:31;;;;;;;7.40;4.00;;;23.70;99.90;;;;;;4975386;28;20493;-64
2021/08/05 08:59:58;;;;;;;8.77;3.93;;;23.60;99.90;;;;;;4984497;28;20424;-65
2021/08/05 09:02:24;;;;;;;8.60;3.50;;;23.30;99.90;;;;;;4988932;28;20457;-64
2021/08/05 09:04:51;;;;;;;7.55;3.30;;;22.90;99.90;;;;;;4979617;28;20807;-60
2021/08/05 09:07:17;;;;;;;10.52;7.53;;;22.60;99.90;;;;;;4965252;28;20392;-61
2021/08/05 09:09:43;;;;;;;7.70;5.38;;;22.50;99.90;;;;;;4990720;28;20509;-62
2021/08/05 09:12:15;;;;;;;7.50;4.13;;;22.60;99.90;;;;;;4980699;28;20493;-62
2021/08/05 09:14:49;;;;;;;8.32;3.50;;;22.80;99.90;;;;;;4976681;28;20489;-65
2021/08/05 09:17:25;;;;;;;8.20;4.20;;;23.10;99.90;;;;;;4991180;28;20564;-67
2021/08/05 09:19:59;;;;;;;7.47;4.00;;;23.10;99.90;;;;;;4970670;28;20753;-62
2021/08/05 09:22:57;;;;;;;7.95;4.10;;;23.20;99.90;;;;;;4978881;28;20446;-66
2021/08/05 09:25:31;;;;;;;7.40;3.30;;;26.10;99.90;;;;;;4937123;28;20410;-63
2021/08/05 09:28:00;;;;;;;9.30;3.25;;;28.70;99.40;;;;;;4981177;28;20530;-63
2021/08/05 09:30:37;;;;;;;8.25;6.72;;;31.20;94.20;;;;;;4985205;28;20402;-64
2021/08/05 09:33:15;;;;;;;8.70;3.50;;;33.70;82.10;;;;;;4983581;28;20398;-65
2021/08/05 09:35:43;;;;;;;6.20;3.10;;;33.90;75.70;;;;;;4991376;28;20423;-64
2021/08/05 09:38:33;;;;;;;6.72;2.60;;;32.60;71.60;;;;;;4990509;28;20936;-64
2021/08/05 09:41:07;;;;;;;10.18;2.90;;;31.70;74.50;;;;;;4990276;28;20858;-65
2021/08/05 09:43:33;;;;;;;7.27;4.20;;;30.40;77.10;;;;;;4990973;28;20394;-64
2021/08/05 09:45:59;;;;;;;7.32;3.53;;;28.70;82.30;;;;;;4990199;28;20383;-65
2021/08/05 09:48:43;;;;;;;7.30;4.10;;;27.40;90.30;;;;;;4976029;28;20471;-66
2021/08/05 09:51:13;;;;;;;6.22;2.92;;;26.90;92.30;;;;;;4979923;28;20426;-66
2021/08/05 09:54:03;;;;;;;6.47;2.30;;;27.10;92.30;;;;;;4973206;28;20438;-65
2021/08/05 09:56:31;;;;;;;6.25;2.30;;;27.90;89.60;;;;;;4990686;28;20897;-67
2021/08/05 09:59:23;;;;;;;5.68;2.00;;;28.80;85.60;;;;;;4985693;28;20384;-64
2021/08/05 10:02:15;;;;;;;6.15;2.15;;;29.90;80.70;;;;;;4986887;28;20904;-66
2021/08/05 10:04:44;;;;;;;5.95;2.20;;;29.50;81.80;;;;;;4970042;28;20398;-65
2021/08/05 10:07:09;;;;;;;7.20;2.25;;;29.10;81.70;;;;;;4989976;28;20387;-65
2021/08/05 10:09:38;;;;;;;7.60;3.13;;;27.70;86.10;;;;;;4990606;28;20406;-64
2021/08/05 10:12:33;;;;;;;6.32;2.00;;;26.70;88.60;;;;;;4986622;28;20412;-65
2021/08/05 10:15:13;;;;;;;5.90;2.80;;;25.90;90.70;;;;;;4955902;28;20835;-64
2021/08/05 10:17:40;;;;;;;7.10;3.40;;;25.40;91.40;;;;;;4971952;28;20411;-64
2021/08/05 10:20:09;;;;;;;6.13;3.45;;;24.80;92.60;;;;;;4970872;28;20412;-65
2021/08/05 10:22:36;;;;;;;5.95;2.50;;;24.60;94.20;;;;;;4981258;28;21043;-64
2021/08/05 10:25:03;;;;;;;5.70;2.60;;;24.50;94.90;;;;;;4975896;28;20734;-65
2021/08/05 10:27:30;;;;;;;8.75;2.55;;;24.30;96.40;;;;;;4973203;28;20490;-67
2021/08/05 10:29:57;;;;;;;5.47;2.25;;;24.70;95.30;;;;;;4977653;28;20394;-60
2021/08/05 10:32:23;;;;;;;5.18;2.15;;;26.70;91.70;;;;;;4974781;28;20883;-65
2021/08/05 10:34:50;;;;;;;5.40;2.33;;;28.10;88.40;;;;;;4989254;28;20390;-64
2021/08/05 10:37:16;;;;;;;6.55;3.28;;;27.90;87.60;;;;;;4989077;28;20465;-66
2021/08/05 10:39:44;;;;;;;8.10;2.42;;;27.50;89.70;;;;;;4990039;28;20799;-66
2021/08/05 10:42:14;;;;;;;6.13;2.80;;;26.80;90.20;;;;;;4971393;28;20499;-66
2021/08/05 10:44:40;;;;;;;7.07;3.10;;;25.80;90.90;;;;;;4971620;28;20391;-66
2021/08/05 10:47:11;;;;;;;5.30;2.70;;;25.60;91.70;;;;;;4975809;28;20420;-67
2021/08/05 10:49:37;;;;;;;6.10;2.90;;;25.80;92.40;;;;;;4971542;28;20391;-66
2021/08/05 10:52:04;;;;;;;7.00;2.75;;;25.60;92.30;;;;;;4975865;28;20506;-66
2021/08/05 10:54:50;;;;;;;6.05;2.45;;;25.60;93.00;;;;;;4986476;28;20397;-66
2021/08/05 10:57:22;;;;;;;6.85;2.80;;;25.50;94.00;;;;;;4977276;28;20408;-65
2021/08/05 11:00:15;;;;;;;5.50;2.58;;;25.10;92.90;;;;;;4975593;28;20404;-65
2021/08/05 11:02:46;;;;;;;5.72;2.70;;;25.00;95.80;;;;;;4981345;28;20430;-66
2021/08/05 11:05:22;;;;;;;6.00;3.10;;;24.70;98.70;;;;;;4988724;28;20394;-66
2021/08/05 11:07:51;;;;;;;8.10;3.10;;;24.50;99.00;;;;;;4989509;28;20862;-65
2021/08/05 11:10:24;;;;;;;6.60;2.80;;;24.70;99.10;;;;;;4988428;28;20426;-65
2021/08/05 11:12:53;;;;;;;5.60;2.50;;;25.10;97.80;;;;;;4966259;28;20430;-68
2021/08/05 11:15:32;;;;;;;5.90;2.60;;;25.70;96.70;;;;;;4974908;28;20422;-68
2021/08/05 11:20:33;;;;;;;7.57;2.80;;;25.40;94.50;;;;;;4980503;28;20410;-68
2021/08/05 11:22:59;;;;;;;6.35;2.80;;;25.80;94.80;;;;;;4978801;28;20402;-63
2021/08/05 11:25:25;;;;;;;5.80;2.23;;;26.30;93.90;;;;;;4983745;28;20416;-64
2021/08/05 11:28:28;;;;;;;5.35;2.42;;;26.70;93.70;;;;;;4974937;28;20404;-67
2021/08/05 11:31:07;;;;;;;5.10;2.10;;;26.60;92.50;;;;;;4978388;28;20426;-64
2021/08/05 11:33:39;;;;;;;6.47;2.00;;;26.90;92.40;;;;;;4978467;28;20445;-65
2021/08/05 11:36:22;;;;;;;5.30;1.90;;;27.10;91.20;;;;;;4973851;28;20458;-63
2021/08/05 11:39:23;;;;;;;6.90;2.42;;;26.80;90.90;;;;;;4979183;28;20887;-64
2021/08/05 11:41:51;;;;;;;4.90;2.00;;;26.80;90.90;;;;;;4977338;28;20744;-65
2021/08/05 11:44:21;;;;;;;4.82;2.00;;;26.70;90.00;;;;;;4976675;28;20413;-63
2021/08/05 11:47:08;;;;;;;5.30;2.10;;;26.60;90.60;;;;;;4977978;28;20518;-65
2021/08/05 11:49:36;;;;;;;5.97;2.13;;;26.50;91.20;;;;;;4980327;28;20406;-64
2021/08/05 11:52:19;;;;;;;5.95;2.80;;;26.90;90.50;;;;;;4973355;28;20414;-61
2021/08/05 11:54:48;;;;;;;6.20;2.10;;;27.00;91.40;;;;;;4976865;28;20397;-64
2021/08/05 11:57:17;;;;;;;5.35;2.65;;;27.40;90.80;;;;;;4973670;28;20471;-64
2021/08/05 11:59:51;;;;;;;6.00;2.00;;;27.40;90.00;;;;;;4977602;28;20459;-64
2021/08/05 12:02:19;;;;;;;9.30;2.40;;;27.70;87.00;;;;;;4984199;28;20950;-65
2021/08/05 12:04:45;;;;;;;5.50;2.20;;;27.50;88.40;;;;;;4980667;28;20445;-62
2021/08/05 12:07:19;;;;;;;5.75;2.20;;;26.90;90.00;;;;;;4978149;28;20396;-61
2021/08/05 12:09:51;;;;;;;5.03;2.10;;;26.70;90.10;;;;;;4973641;28;20396;-64
2021/08/05 12:12:18;;;;;;;6.30;2.22;;;26.20;90.50;;;;;;4982605;28;20414;-64
2021/08/05 12:14:48;;;;;;;5.32;2.20;;;26.50;90.80;;;;;;4992409;28;20385;-64
2021/08/05 12:17:14;;;;;;;5.47;2.30;;;27.00;89.80;;;;;;4982428;28;20907;-64
2021/08/05 12:19:49;;;;;;;5.05;2.10;;;27.00;89.70;;;;;;4972109;28;20738;-64
2021/08/05 12:22:16;;;;;;;5.35;2.45;;;26.80;89.30;;;;;;4991671;28;20395;-66
2021/08/05 12:24:49;;;;;;;5.68;2.10;;;25.50;93.30;;;;;;4981822;28;20390;-66
2021/08/05 12:27:18;;;;;;;5.38;2.50;;;25.30;94.10;;;;;;4979631;28;20396;-66
2021/08/05 12:30:04;;;;;;;4.63;1.63;;;25.40;93.70;;;;;;4982037;28;20413;-66
2021/08/05 12:32:30;;;;;;;5.97;2.45;;;25.60;93.50;;;;;;4979481;28;20445;-65
2021/08/05 12:34:55;;;;;;;6.40;2.08;;;25.90;93.00;;;;;;4964215;28;20400;-63
2021/08/05 12:37:21;;;;;;;6.40;2.73;;;26.10;92.80;;;;;;4979277;28;20720;-62
2021/08/05 12:39:47;;;;;;;7.93;2.50;;;26.00;93.30;;;;;;4973321;28;20470;-63
2021/08/05 12:42:16;;;;;;;5.60;1.90;;;26.00;93.40;;;;;;4975382;28;20388;-63
2021/08/05 12:44:42;;;;;;;5.50;1.90;;;26.20;92.90;;;;;;4983572;28;20439;-63
2021/08/05 12:47:08;;;;;;;5.70;2.37;;;26.30;93.10;;;;;;4981075;28;20410;-63
2021/08/05 12:49:37;;;;;;;5.13;2.00;;;26.20;92.90;;;;;;4979701;28;20392;-63
2021/08/05 12:52:04;;;;;;;5.88;2.22;;;26.50;93.00;;;;;;4978927;28;20421;-60
2021/08/05 12:54:32;;;;;;;5.57;2.08;;;26.70;93.10;;;;;;4979613;28;20405;-62